sensor_id;sensor_type;location;lat;lon;timestamp;temperature;humidity
48860;DHT22;34679;51.436;-2.518;2023-04-09T00:01:46;8.50;99.90
48860;DHT22;34679;51.436;-2.518;2023-04-09T00:04:12;8.50;99.90
48860;DHT22;34679;51.436;-2.518;2023-04-09T00:06:37;8.40;99.90
48860;DHT22;34679;51.436;-2.518;2023-04-09T00:09:03;8.40;99.90
48860;DHT22;34679;51.436;-2.518;2023-04-09T00:11:29;8.40;99.90
48860;DHT22;34679;51.436;-2.518;2023-04-09T00:13:56;8.40;99.90
48860;DHT22;34679;51.436;-2.518;2023-04-09T00:16:21;8.30;99.90
48860;DHT22;34679;51.436;-2.518;2023-04-09T00:18:47;8.30;99.90
48860;DHT22;34679;51.436;-2.518;2023-04-09T00:21:13;8.30;99.90
48860;DHT22;34679;51.436;-2.518;2023-04-09T00:23:40;8.20;99.90
48860;DHT22;34679;51.436;-2.518;2023-04-09T00:26:06;8.20;99.90
48860;DHT22;34679;51.436;-2.518;2023-04-09T00:28:32;8.20;99.90
48860;DHT22;34679;51.436;-2.518;2023-04-09T00:30:58;8.10;99.90
48860;DHT22;34679;51.436;-2.518;2023-04-09T00:33:24;8.10;99.90
48860;DHT22;34679;51.436;-2.518;2023-04-09T00:35:50;8.00;99.90
48860;DHT22;34679;51.436;-2.518;2023-04-09T00:38:15;8.00;99.90
48860;DHT22;34679;51.436;-2.518;2023-04-09T00:40:41;7.90;99.90
48860;DHT22;34679;51.436;-2.518;2023-04-09T00:43:07;7.90;99.90
48860;DHT22;34679;51.436;-2.518;2023-04-09T00:45:33;7.90;99.90
48860;DHT22;34679;51.436;-2.518;2023-04-09T00:47:59;7.90;99.90
48860;DHT22;34679;51.436;-2.518;2023-04-09T00:50:25;7.80;99.90
48860;DHT22;34679;51.436;-2.518;2023-04-09T00:52:51;7.80;99.90
48860;DHT22;34679;51.436;-2.518;2023-04-09T00:55:17;7.80;99.90
48860;DHT22;34679;51.436;-2.518;2023-04-09T00:57:43;7.70;99.90
48860;DHT22;34679;51.436;-2.518;2023-04-09T01:00:09;7.70;99.90
48860;DHT22;34679;51.436;-2.518;2023-04-09T01:02:36;7.60;99.90
48860;DHT22;34679;51.436;-2.518;2023-04-09T01:05:02;7.60;99.90
48860;DHT22;34679;51.436;-2.518;2023-04-09T01:10:16;7.60;99.90
48860;DHT22;34679;51.436;-2.518;2023-04-09T01:15:25;7.40;99.90
48860;DHT22;34679;51.436;-2.518;2023-04-09T01:18:06;7.40;99.90
48860;DHT22;34679;51.436;-2.518;2023-04-09T01:20:45;7.30;99.90
48860;DHT22;34679;51.436;-2.518;2023-04-09T01:23:34;7.20;99.90
48860;DHT22;34679;51.436;-2.518;2023-04-09T01:29:05;7.10;99.90
48860;DHT22;34679;51.436;-2.518;2023-04-09T01:31:34;7.10;99.90
48860;DHT22;34679;51.436;-2.518;2023-04-09T01:34:01;7.10;99.90
48860;DHT22;34679;51.436;-2.518;2023-04-09T01:36:29;7.10;99.90
48860;DHT22;34679;51.436;-2.518;2023-04-09T01:38:56;7.20;99.90
48860;DHT22;34679;51.436;-2.518;2023-04-09T01:41:24;7.20;99.90
48860;DHT22;34679;51.436;-2.518;2023-04-09T01:43:52;7.20;99.90
48860;DHT22;34679;51.436;-2.518;2023-04-09T01:46:20;7.20;99.90
48860;DHT22;34679;51.436;-2.518;2023-04-09T01:48:46;7.20;99.90
48860;DHT22;34679;51.436;-2.518;2023-04-09T01:51:13;7.10;99.90
48860;DHT22;34679;51.436;-2.518;2023-04-09T01:53:40;7.10;99.90
48860;DHT22;34679;51.436;-2.518;2023-04-09T01:56:07;7.00;99.90
48860;DHT22;34679;51.436;-2.518;2023-04-09T01:58:33;7.00;99.90
48860;DHT22;34679;51.436;-2.518;2023-04-09T02:01:15;6.90;99.90
48860;DHT22;34679;51.436;-2.518;2023-04-09T02:03:50;6.80;99.90
48860;DHT22;34679;51.436;-2.518;2023-04-09T02:06:30;6.80;99.90
48860;DHT22;34679;51.436;-2.518;2023-04-09T02:08:59;6.70;99.90
48860;DHT22;34679;51.436;-2.518;2023-04-09T02:11:28;6.60;99.90
48860;DHT22;34679;51.436;-2.518;2023-04-09T02:13:54;6.60;99.90
48860;DHT22;34679;51.436;-2.518;2023-04-09T02:16:21;6.60;99.90
48860;DHT22;34679;51.436;-2.518;2023-04-09T02:18:55;6.80;99.90
48860;DHT22;34679;51.436;-2.518;2023-04-09T02:21:26;6.90;99.90
48860;DHT22;34679;51.436;-2.518;2023-04-09T02:23:53;6.80;99.90
48860;DHT22;34679;51.436;-2.518;2023-04-09T02:26:20;6.80;99.90
48860;DHT22;34679;51.436;-2.518;2023-04-09T02:28:45;6.80;99.90
48860;DHT22;34679;51.436;-2.518;2023-04-09T02:31:11;6.90;99.90
48860;DHT22;34679;51.436;-2.518;2023-04-09T02:33:37;6.90;99.90
48860;DHT22;34679;51.436;-2.518;2023-04-09T02:36:03;6.90;99.90
48860;DHT22;34679;51.436;-2.518;2023-04-09T02:38:29;6.70;99.90
48860;DHT22;34679;51.436;-2.518;2023-04-09T02:40:55;6.70;99.90
48860;DHT22;34679;51.436;-2.518;2023-04-09T02:43:21;6.70;99.90
48860;DHT22;34679;51.436;-2.518;2023-04-09T02:45:46;6.70;99.90
48860;DHT22;34679;51.436;-2.518;2023-04-09T02:48:12;6.80;99.90
48860;DHT22;34679;51.436;-2.518;2023-04-09T02:50:38;6.90;99.90
48860;DHT22;34679;51.436;-2.518;2023-04-09T02:53:03;6.90;99.90
48860;DHT22;34679;51.436;-2.518;2023-04-09T02:55:29;6.80;99.90
48860;DHT22;34679;51.436;-2.518;2023-04-09T02:57:55;6.80;99.90
48860;DHT22;34679;51.436;-2.518;2023-04-09T03:00:20;6.80;99.90
48860;DHT22;34679;51.436;-2.518;2023-04-09T03:02:46;6.80;99.90
48860;DHT22;34679;51.436;-2.518;2023-04-09T03:05:12;6.90;99.90
48860;DHT22;34679;51.436;-2.518;2023-04-09T03:07:37;6.80;99.90
48860;DHT22;34679;51.436;-2.518;2023-04-09T03:10:03;6.80;99.90
48860;DHT22;34679;51.436;-2.518;2023-04-09T03:12:29;6.70;99.90
48860;DHT22;34679;51.436;-2.518;2023-04-09T03:14:55;6.70;99.90
48860;DHT22;34679;51.436;-2.518;2023-04-09T03:17:20;6.70;99.90
48860;DHT22;34679;51.436;-2.518;2023-04-09T03:19:46;6.70;99.90
48860;DHT22;34679;51.436;-2.518;2023-04-09T03:22:12;6.70;99.90
48860;DHT22;34679;51.436;-2.518;2023-04-09T03:24:38;6.70;99.90
48860;DHT22;34679;51.436;-2.518;2023-04-09T03:27:04;6.70;99.90
48860;DHT22;34679;51.436;-2.518;2023-04-09T03:29:29;6.60;99.90
48860;DHT22;34679;51.436;-2.518;2023-04-09T03:31:55;6.60;99.90
48860;DHT22;34679;51.436;-2.518;2023-04-09T03:34:21;6.60;99.90
48860;DHT22;34679;51.436;-2.518;2023-04-09T03:36:46;6.60;99.90
48860;DHT22;34679;51.436;-2.518;2023-04-09T03:39:12;6.60;99.90
48860;DHT22;34679;51.436;-2.518;2023-04-09T03:41:37;6.60;99.90
48860;DHT22;34679;51.436;-2.518;2023-04-09T03:44:03;6.60;99.90
48860;DHT22;34679;51.436;-2.518;2023-04-09T03:46:29;6.60;99.90
48860;DHT22;34679;51.436;-2.518;2023-04-09T03:48:55;6.50;99.90
48860;DHT22;34679;51.436;-2.518;2023-04-09T03:51:20;6.40;99.90
48860;DHT22;34679;51.436;-2.518;2023-04-09T03:53:46;6.40;99.90
48860;DHT22;34679;51.436;-2.518;2023-04-09T03:56:12;6.40;99.90
48860;DHT22;34679;51.436;-2.518;2023-04-09T03:58:37;6.30;99.90
48860;DHT22;34679;51.436;-2.518;2023-04-09T04:01:03;6.30;99.90
48860;DHT22;34679;51.436;-2.518;2023-04-09T04:03:29;6.40;99.90
48860;DHT22;34679;51.436;-2.518;2023-04-09T04:06:04;6.40;99.90
48860;DHT22;34679;51.436;-2.518;2023-04-09T04:08:29;6.40;99.90
48860;DHT22;34679;51.436;-2.518;2023-04-09T04:10:55;6.30;99.90
48860;DHT22;34679;51.436;-2.518;2023-04-09T04:13:27;6.20;99.90
48860;DHT22;34679;51.436;-2.518;2023-04-09T04:15:52;6.30;99.90
48860;DHT22;34679;51.436;-2.518;2023-04-09T04:18:18;6.20;99.90
48860;DHT22;34679;51.436;-2.518;2023-04-09T04:20:43;6.20;99.90
48860;DHT22;34679;51.436;-2.518;2023-04-09T04:23:09;6.20;99.90
48860;DHT22;34679;51.436;-2.518;2023-04-09T04:25:35;6.20;99.90
48860;DHT22;34679;51.436;-2.518;2023-04-09T04:28:00;6.20;99.90
48860;DHT22;34679;51.436;-2.518;2023-04-09T04:30:26;6.20;99.90
48860;DHT22;34679;51.436;-2.518;2023-04-09T04:32:52;6.20;99.90
48860;DHT22;34679;51.436;-2.518;2023-04-09T04:35:18;6.20;99.90
48860;DHT22;34679;51.436;-2.518;2023-04-09T04:37:43;6.10;99.90
48860;DHT22;34679;51.436;-2.518;2023-04-09T04:40:09;6.10;99.90
48860;DHT22;34679;51.436;-2.518;2023-04-09T04:42:35;6.00;99.90
48860;DHT22;34679;51.436;-2.518;2023-04-09T04:45:01;5.90;99.90
48860;DHT22;34679;51.436;-2.518;2023-04-09T04:47:26;5.90;99.90
48860;DHT22;34679;51.436;-2.518;2023-04-09T04:49:52;5.80;99.90
48860;DHT22;34679;51.436;-2.518;2023-04-09T04:52:18;5.70;99.90
48860;DHT22;34679;51.436;-2.518;2023-04-09T04:54:44;5.60;99.90
48860;DHT22;34679;51.436;-2.518;2023-04-09T04:57:09;5.60;99.90
48860;DHT22;34679;51.436;-2.518;2023-04-09T04:59:39;5.50;99.90
48860;DHT22;34679;51.436;-2.518;2023-04-09T05:02:06;5.50;99.90
48860;DHT22;34679;51.436;-2.518;2023-04-09T05:04:32;5.40;99.90
48860;DHT22;34679;51.436;-2.518;2023-04-09T05:06:57;5.40;99.90
48860;DHT22;34679;51.436;-2.518;2023-04-09T05:09:23;5.30;99.90
48860;DHT22;34679;51.436;-2.518;2023-04-09T05:11:48;5.40;99.90
48860;DHT22;34679;51.436;-2.518;2023-04-09T05:14:14;5.60;99.90
48860;DHT22;34679;51.436;-2.518;2023-04-09T05:16:40;5.70;99.90
48860;DHT22;34679;51.436;-2.518;2023-04-09T05:19:06;5.80;99.90
48860;DHT22;34679;51.436;-2.518;2023-04-09T05:21:32;5.70;99.90
48860;DHT22;34679;51.436;-2.518;2023-04-09T05:23:58;5.90;99.90
48860;DHT22;34679;51.436;-2.518;2023-04-09T05:26:23;5.80;99.90
48860;DHT22;34679;51.436;-2.518;2023-04-09T05:28:49;5.80;99.90
48860;DHT22;34679;51.436;-2.518;2023-04-09T05:31:16;5.80;99.90
48860;DHT22;34679;51.436;-2.518;2023-04-09T05:33:42;5.80;99.90
48860;DHT22;34679;51.436;-2.518;2023-04-09T05:36:08;5.80;99.90
48860;DHT22;34679;51.436;-2.518;2023-04-09T05:38:38;5.70;99.90
48860;DHT22;34679;51.436;-2.518;2023-04-09T05:41:05;5.80;99.90
48860;DHT22;34679;51.436;-2.518;2023-04-09T05:43:30;5.80;99.90
48860;DHT22;34679;51.436;-2.518;2023-04-09T05:45:56;5.80;99.90
48860;DHT22;34679;51.436;-2.518;2023-04-09T05:48:22;5.80;99.90
48860;DHT22;34679;51.436;-2.518;2023-04-09T05:50:51;5.70;99.90
48860;DHT22;34679;51.436;-2.518;2023-04-09T05:53:20;5.70;99.90
48860;DHT22;34679;51.436;-2.518;2023-04-09T05:55:46;5.80;99.90
48860;DHT22;34679;51.436;-2.518;2023-04-09T05:58:13;5.80;99.90
48860;DHT22;34679;51.436;-2.518;2023-04-09T06:00:40;5.90;99.90
48860;DHT22;34679;51.436;-2.518;2023-04-09T06:03:07;6.00;99.90
48860;DHT22;34679;51.436;-2.518;2023-04-09T06:05:33;6.00;99.90
48860;DHT22;34679;51.436;-2.518;2023-04-09T06:07:58;6.10;99.90
48860;DHT22;34679;51.436;-2.518;2023-04-09T06:10:24;6.00;99.90
48860;DHT22;34679;51.436;-2.518;2023-04-09T06:12:50;6.10;99.90
48860;DHT22;34679;51.436;-2.518;2023-04-09T06:15:16;6.10;99.90
48860;DHT22;34679;51.436;-2.518;2023-04-09T06:17:43;6.20;99.90
48860;DHT22;34679;51.436;-2.518;2023-04-09T06:20:09;6.30;99.90
48860;DHT22;34679;51.436;-2.518;2023-04-09T06:22:35;6.30;99.90
48860;DHT22;34679;51.436;-2.518;2023-04-09T06:25:00;6.40;99.90
48860;DHT22;34679;51.436;-2.518;2023-04-09T06:27:26;6.50;99.90
48860;DHT22;34679;51.436;-2.518;2023-04-09T06:29:52;6.60;99.90
48860;DHT22;34679;51.436;-2.518;2023-04-09T06:32:17;6.60;99.90
48860;DHT22;34679;51.436;-2.518;2023-04-09T06:34:43;6.70;99.90
48860;DHT22;34679;51.436;-2.518;2023-04-09T06:37:09;6.80;99.90
48860;DHT22;34679;51.436;-2.518;2023-04-09T06:39:34;6.80;99.90
48860;DHT22;34679;51.436;-2.518;2023-04-09T06:42:00;6.80;99.90
48860;DHT22;34679;51.436;-2.518;2023-04-09T06:44:28;6.90;99.90
48860;DHT22;34679;51.436;-2.518;2023-04-09T06:46:54;7.00;99.90
48860;DHT22;34679;51.436;-2.518;2023-04-09T06:49:20;7.00;99.90
48860;DHT22;34679;51.436;-2.518;2023-04-09T06:51:45;7.00;99.90
48860;DHT22;34679;51.436;-2.518;2023-04-09T06:54:11;7.10;99.90
48860;DHT22;34679;51.436;-2.518;2023-04-09T06:56:37;7.10;99.90
48860;DHT22;34679;51.436;-2.518;2023-04-09T06:59:02;7.10;99.90
48860;DHT22;34679;51.436;-2.518;2023-04-09T07:01:28;7.10;99.90
48860;DHT22;34679;51.436;-2.518;2023-04-09T07:03:54;7.20;99.90
48860;DHT22;34679;51.436;-2.518;2023-04-09T07:06:19;7.20;99.90
48860;DHT22;34679;51.436;-2.518;2023-04-09T07:08:45;7.30;99.90
48860;DHT22;34679;51.436;-2.518;2023-04-09T07:11:11;7.40;99.90
48860;DHT22;34679;51.436;-2.518;2023-04-09T07:13:37;7.50;99.90
48860;DHT22;34679;51.436;-2.518;2023-04-09T07:16:03;7.60;99.90
48860;DHT22;34679;51.436;-2.518;2023-04-09T07:18:29;7.70;99.90
48860;DHT22;34679;51.436;-2.518;2023-04-09T07:20:55;7.80;99.90
48860;DHT22;34679;51.436;-2.518;2023-04-09T07:23:21;7.80;99.90
48860;DHT22;34679;51.436;-2.518;2023-04-09T07:25:47;7.90;99.90
48860;DHT22;34679;51.436;-2.518;2023-04-09T07:28:12;8.00;99.90
48860;DHT22;34679;51.436;-2.518;2023-04-09T07:30:39;8.00;99.90
48860;DHT22;34679;51.436;-2.518;2023-04-09T07:33:04;8.10;99.90
48860;DHT22;34679;51.436;-2.518;2023-04-09T07:35:30;8.20;99.90
48860;DHT22;34679;51.436;-2.518;2023-04-09T07:37:57;8.20;99.90
48860;DHT22;34679;51.436;-2.518;2023-04-09T07:40:23;8.30;99.90
48860;DHT22;34679;51.436;-2.518;2023-04-09T07:42:49;8.40;99.90
48860;DHT22;34679;51.436;-2.518;2023-04-09T07:45:15;8.40;99.90
48860;DHT22;34679;51.436;-2.518;2023-04-09T07:47:41;8.60;99.90
48860;DHT22;34679;51.436;-2.518;2023-04-09T07:50:07;8.90;99.90
48860;DHT22;34679;51.436;-2.518;2023-04-09T07:52:33;9.50;99.90
48860;DHT22;34679;51.436;-2.518;2023-04-09T07:54:59;9.70;99.90
48860;DHT22;34679;51.436;-2.518;2023-04-09T07:57:25;9.80;99.90
48860;DHT22;34679;51.436;-2.518;2023-04-09T07:59:52;10.10;99.90
48860;DHT22;34679;51.436;-2.518;2023-04-09T08:02:18;10.00;99.90
48860;DHT22;34679;51.436;-2.518;2023-04-09T08:04:44;10.20;99.90
48860;DHT22;34679;51.436;-2.518;2023-04-09T08:07:09;10.30;99.90
48860;DHT22;34679;51.436;-2.518;2023-04-09T08:09:36;10.40;99.90
48860;DHT22;34679;51.436;-2.518;2023-04-09T08:12:02;10.30;99.90
48860;DHT22;34679;51.436;-2.518;2023-04-09T08:14:27;10.50;99.90
48860;DHT22;34679;51.436;-2.518;2023-04-09T08:16:53;10.60;99.90
48860;DHT22;34679;51.436;-2.518;2023-04-09T08:19:19;10.80;99.90
48860;DHT22;34679;51.436;-2.518;2023-04-09T08:21:45;10.70;99.90
48860;DHT22;34679;51.436;-2.518;2023-04-09T08:24:13;10.80;99.90
48860;DHT22;34679;51.436;-2.518;2023-04-09T08:26:40;10.70;99.90
48860;DHT22;34679;51.436;-2.518;2023-04-09T08:29:07;10.60;99.90
48860;DHT22;34679;51.436;-2.518;2023-04-09T08:31:33;10.60;99.90
48860;DHT22;34679;51.436;-2.518;2023-04-09T08:33:59;10.60;99.90
48860;DHT22;34679;51.436;-2.518;2023-04-09T08:36:24;10.50;99.90
48860;DHT22;34679;51.436;-2.518;2023-04-09T08:38:53;10.40;99.90
48860;DHT22;34679;51.436;-2.518;2023-04-09T08:41:23;10.30;99.90
48860;DHT22;34679;51.436;-2.518;2023-04-09T08:43:50;10.40;99.90
48860;DHT22;34679;51.436;-2.518;2023-04-09T08:46:18;10.40;99.90
48860;DHT22;34679;51.436;-2.518;2023-04-09T08:48:44;10.60;99.90
48860;DHT22;34679;51.436;-2.518;2023-04-09T08:51:18;10.60;99.90
48860;DHT22;34679;51.436;-2.518;2023-04-09T08:53:51;10.90;99.90
48860;DHT22;34679;51.436;-2.518;2023-04-09T08:56:18;10.90;99.90
48860;DHT22;34679;51.436;-2.518;2023-04-09T08:58:45;10.90;99.90
48860;DHT22;34679;51.436;-2.518;2023-04-09T09:01:24;11.20;99.90
48860;DHT22;34679;51.436;-2.518;2023-04-09T09:04:02;11.80;99.90
48860;DHT22;34679;51.436;-2.518;2023-04-09T09:06:36;12.00;99.90
48860;DHT22;34679;51.436;-2.518;2023-04-09T09:11:47;12.10;99.90
48860;DHT22;34679;51.436;-2.518;2023-04-09T09:14:18;12.40;99.90
48860;DHT22;34679;51.436;-2.518;2023-04-09T09:17:03;12.60;99.90
48860;DHT22;34679;51.436;-2.518;2023-04-09T09:19:32;12.70;99.90
48860;DHT22;34679;51.436;-2.518;2023-04-09T09:22:01;12.80;99.90
48860;DHT22;34679;51.436;-2.518;2023-04-09T09:24:27;13.30;99.90
48860;DHT22;34679;51.436;-2.518;2023-04-09T09:26:53;13.20;99.90
48860;DHT22;34679;51.436;-2.518;2023-04-09T09:29:19;13.50;99.90
48860;DHT22;34679;51.436;-2.518;2023-04-09T09:31:50;14.00;99.90
48860;DHT22;34679;51.436;-2.518;2023-04-09T09:34:17;14.50;99.90
48860;DHT22;34679;51.436;-2.518;2023-04-09T09:36:44;15.10;99.90
48860;DHT22;34679;51.436;-2.518;2023-04-09T09:39:11;15.60;99.90
48860;DHT22;34679;51.436;-2.518;2023-04-09T09:41:40;15.70;99.90
48860;DHT22;34679;51.436;-2.518;2023-04-09T09:44:07;15.70;99.90
48860;DHT22;34679;51.436;-2.518;2023-04-09T09:46:38;15.90;99.90
48860;DHT22;34679;51.436;-2.518;2023-04-09T09:49:06;16.30;99.90
48860;DHT22;34679;51.436;-2.518;2023-04-09T09:51:34;16.60;99.90
48860;DHT22;34679;51.436;-2.518;2023-04-09T09:54:01;16.50;99.90
48860;DHT22;34679;51.436;-2.518;2023-04-09T09:56:33;16.10;99.90
48860;DHT22;34679;51.436;-2.518;2023-04-09T09:59:06;16.20;99.90
48860;DHT22;34679;51.436;-2.518;2023-04-09T10:01:36;16.30;99.90
48860;DHT22;34679;51.436;-2.518;2023-04-09T10:04:04;16.80;99.90
48860;DHT22;34679;51.436;-2.518;2023-04-09T10:06:31;17.50;99.90
48860;DHT22;34679;51.436;-2.518;2023-04-09T10:09:02;17.80;99.90
48860;DHT22;34679;51.436;-2.518;2023-04-09T10:11:28;17.80;99.90
48860;DHT22;34679;51.436;-2.518;2023-04-09T10:13:58;18.10;99.90
48860;DHT22;34679;51.436;-2.518;2023-04-09T10:16:25;18.10;99.90
48860;DHT22;34679;51.436;-2.518;2023-04-09T10:18:55;17.50;99.90
48860;DHT22;34679;51.436;-2.518;2023-04-09T10:23:54;17.00;99.90
48860;DHT22;34679;51.436;-2.518;2023-04-09T10:26:20;16.90;99.90
48860;DHT22;34679;51.436;-2.518;2023-04-09T10:28:46;16.80;99.90
48860;DHT22;34679;51.436;-2.518;2023-04-09T10:31:28;16.40;99.90
48860;DHT22;34679;51.436;-2.518;2023-04-09T10:34:09;16.30;99.90
48860;DHT22;34679;51.436;-2.518;2023-04-09T10:36:35;15.90;99.90
48860;DHT22;34679;51.436;-2.518;2023-04-09T10:39:11;15.70;99.90
48860;DHT22;34679;51.436;-2.518;2023-04-09T10:41:38;15.70;99.90
48860;DHT22;34679;51.436;-2.518;2023-04-09T10:44:22;15.70;99.90
48860;DHT22;34679;51.436;-2.518;2023-04-09T10:46:48;15.90;99.90
48860;DHT22;34679;51.436;-2.518;2023-04-09T10:49:21;16.10;99.90
48860;DHT22;34679;51.436;-2.518;2023-04-09T10:51:54;16.30;99.90
48860;DHT22;34679;51.436;-2.518;2023-04-09T10:59:39;16.70;99.90
48860;DHT22;34679;51.436;-2.518;2023-04-09T11:07:32;17.00;99.90
48860;DHT22;34679;51.436;-2.518;2023-04-09T11:09:59;16.80;99.90
48860;DHT22;34679;51.436;-2.518;2023-04-09T11:12:25;16.80;99.90
48860;DHT22;34679;51.436;-2.518;2023-04-09T11:14:51;16.60;99.90
48860;DHT22;34679;51.436;-2.518;2023-04-09T11:17:17;16.70;99.90
48860;DHT22;34679;51.436;-2.518;2023-04-09T11:19:44;16.70;99.90
48860;DHT22;34679;51.436;-2.518;2023-04-09T11:22:11;16.80;99.90
48860;DHT22;34679;51.436;-2.518;2023-04-09T11:24:41;17.00;99.90
48860;DHT22;34679;51.436;-2.518;2023-04-09T11:27:07;17.10;99.90
48860;DHT22;34679;51.436;-2.518;2023-04-09T11:29:34;17.20;99.90
48860;DHT22;34679;51.436;-2.518;2023-04-09T11:32:00;16.80;99.90
48860;DHT22;34679;51.436;-2.518;2023-04-09T11:34:28;16.90;99.90
48860;DHT22;34679;51.436;-2.518;2023-04-09T11:36:54;16.90;99.90
48860;DHT22;34679;51.436;-2.518;2023-04-09T11:39:21;16.70;99.90
48860;DHT22;34679;51.436;-2.518;2023-04-09T11:41:47;16.70;99.90
48860;DHT22;34679;51.436;-2.518;2023-04-09T11:44:13;16.80;99.90
48860;DHT22;34679;51.436;-2.518;2023-04-09T11:46:39;16.90;99.90
48860;DHT22;34679;51.436;-2.518;2023-04-09T11:49:05;17.00;99.90
48860;DHT22;34679;51.436;-2.518;2023-04-09T11:51:31;17.30;99.90
48860;DHT22;34679;51.436;-2.518;2023-04-09T11:54:05;17.10;99.90
48860;DHT22;34679;51.436;-2.518;2023-04-09T11:56:31;17.00;99.90
48860;DHT22;34679;51.436;-2.518;2023-04-09T11:58:58;17.10;99.90
48860;DHT22;34679;51.436;-2.518;2023-04-09T12:01:23;17.10;99.90
48860;DHT22;34679;51.436;-2.518;2023-04-09T12:03:53;17.00;99.90
48860;DHT22;34679;51.436;-2.518;2023-04-09T12:06:20;17.00;99.90
48860;DHT22;34679;51.436;-2.518;2023-04-09T12:08:56;17.00;99.90
48860;DHT22;34679;51.436;-2.518;2023-04-09T12:11:30;17.10;99.90
48860;DHT22;34679;51.436;-2.518;2023-04-09T12:14:00;17.40;99.90
48860;DHT22;34679;51.436;-2.518;2023-04-09T12:16:30;17.50;99.90
48860;DHT22;34679;51.436;-2.518;2023-04-09T12:19:09;17.60;99.90
48860;DHT22;34679;51.436;-2.518;2023-04-09T12:21:49;17.70;99.90
48860;DHT22;34679;51.436;-2.518;2023-04-09T12:24:16;17.80;99.90
48860;DHT22;34679;51.436;-2.518;2023-04-09T12:26:44;17.90;99.90
48860;DHT22;34679;51.436;-2.518;2023-04-09T12:29:10;17.70;99.90
48860;DHT22;34679;51.436;-2.518;2023-04-09T12:31:36;17.70;99.90
48860;DHT22;34679;51.436;-2.518;2023-04-09T12:34:02;17.80;99.90
48860;DHT22;34679;51.436;-2.518;2023-04-09T12:36:28;17.60;99.90
48860;DHT22;34679;51.436;-2.518;2023-04-09T12:38:54;17.70;99.90
48860;DHT22;34679;51.436;-2.518;2023-04-09T12:41:20;17.80;99.90
48860;DHT22;34679;51.436;-2.518;2023-04-09T12:43:46;17.90;99.90
48860;DHT22;34679;51.436;-2.518;2023-04-09T12:46:12;17.80;99.90
48860;DHT22;34679;51.436;-2.518;2023-04-09T12:48:38;18.00;99.90
48860;DHT22;34679;51.436;-2.518;2023-04-09T12:51:04;18.10;99.90
48860;DHT22;34679;51.436;-2.518;2023-04-09T12:53:31;18.10;99.90
48860;DHT22;34679;51.436;-2.518;2023-04-09T12:55:56;18.10;99.90
48860;DHT22;34679;51.436;-2.518;2023-04-09T12:58:22;17.60;99.90
48860;DHT22;34679;51.436;-2.518;2023-04-09T13:00:48;17.90;99.90
48860;DHT22;34679;51.436;-2.518;2023-04-09T13:03:14;18.10;99.90
48860;DHT22;34679;51.436;-2.518;2023-04-09T13:05:42;18.30;99.90
48860;DHT22;34679;51.436;-2.518;2023-04-09T13:08:08;18.20;99.90
48860;DHT22;34679;51.436;-2.518;2023-04-09T13:10:34;18.30;99.90
48860;DHT22;34679;51.436;-2.518;2023-04-09T13:13:01;18.40;99.90
48860;DHT22;34679;51.436;-2.518;2023-04-09T13:15:27;18.30;99.60
48860;DHT22;34679;51.436;-2.518;2023-04-09T13:17:52;18.00;99.70
48860;DHT22;34679;51.436;-2.518;2023-04-09T13:20:18;17.90;99.00
48860;DHT22;34679;51.436;-2.518;2023-04-09T13:22:46;17.80;99.30
48860;DHT22;34679;51.436;-2.518;2023-04-09T13:25:13;17.90;99.00
48860;DHT22;34679;51.436;-2.518;2023-04-09T13:27:40;17.90;99.10
48860;DHT22;34679;51.436;-2.518;2023-04-09T13:30:06;17.80;99.20
48860;DHT22;34679;51.436;-2.518;2023-04-09T13:32:32;17.70;99.40
48860;DHT22;34679;51.436;-2.518;2023-04-09T13:34:58;17.80;99.30
48860;DHT22;34679;51.436;-2.518;2023-04-09T13:37:23;17.80;99.50
48860;DHT22;34679;51.436;-2.518;2023-04-09T13:39:50;17.80;98.80
48860;DHT22;34679;51.436;-2.518;2023-04-09T13:42:16;17.80;99.00
48860;DHT22;34679;51.436;-2.518;2023-04-09T13:44:42;17.70;98.80
48860;DHT22;34679;51.436;-2.518;2023-04-09T13:47:12;17.70;99.30
48860;DHT22;34679;51.436;-2.518;2023-04-09T13:49:38;17.70;99.00
48860;DHT22;34679;51.436;-2.518;2023-04-09T13:52:05;17.60;98.90
48860;DHT22;34679;51.436;-2.518;2023-04-09T13:54:31;17.60;99.00
48860;DHT22;34679;51.436;-2.518;2023-04-09T13:56:57;17.50;98.90
48860;DHT22;34679;51.436;-2.518;2023-04-09T13:59:23;17.40;99.20
48860;DHT22;34679;51.436;-2.518;2023-04-09T14:01:48;17.50;99.00
48860;DHT22;34679;51.436;-2.518;2023-04-09T14:04:14;17.40;99.10
48860;DHT22;34679;51.436;-2.518;2023-04-09T14:06:41;17.20;99.40
48860;DHT22;34679;51.436;-2.518;2023-04-09T14:09:07;17.30;99.90
48860;DHT22;34679;51.436;-2.518;2023-04-09T14:11:33;17.30;99.50
48860;DHT22;34679;51.436;-2.518;2023-04-09T14:13:59;17.30;99.10
48860;DHT22;34679;51.436;-2.518;2023-04-09T14:16:25;17.20;99.70
48860;DHT22;34679;51.436;-2.518;2023-04-09T14:18:51;17.40;99.80
48860;DHT22;34679;51.436;-2.518;2023-04-09T14:21:16;17.40;99.30
48860;DHT22;34679;51.436;-2.518;2023-04-09T14:23:43;17.20;98.50
48860;DHT22;34679;51.436;-2.518;2023-04-09T14:26:09;17.30;98.60
48860;DHT22;34679;51.436;-2.518;2023-04-09T14:28:35;17.00;98.80
48860;DHT22;34679;51.436;-2.518;2023-04-09T14:31:01;16.80;99.00
48860;DHT22;34679;51.436;-2.518;2023-04-09T14:33:26;16.60;99.30
48860;DHT22;34679;51.436;-2.518;2023-04-09T14:35:52;16.80;99.50
48860;DHT22;34679;51.436;-2.518;2023-04-09T14:38:18;16.70;99.20
48860;DHT22;34679;51.436;-2.518;2023-04-09T14:40:44;16.60;99.40
48860;DHT22;34679;51.436;-2.518;2023-04-09T14:43:09;16.60;99.60
48860;DHT22;34679;51.436;-2.518;2023-04-09T14:45:35;16.60;99.80
48860;DHT22;34679;51.436;-2.518;2023-04-09T14:48:01;16.40;99.50
48860;DHT22;34679;51.436;-2.518;2023-04-09T14:50:29;16.50;99.70
48860;DHT22;34679;51.436;-2.518;2023-04-09T14:52:55;16.50;99.80
48860;DHT22;34679;51.436;-2.518;2023-04-09T14:55:21;16.50;99.90
48860;DHT22;34679;51.436;-2.518;2023-04-09T14:57:47;16.60;99.90
48860;DHT22;34679;51.436;-2.518;2023-04-09T15:00:13;16.70;99.90
48860;DHT22;34679;51.436;-2.518;2023-04-09T15:02:38;16.70;99.90
48860;DHT22;34679;51.436;-2.518;2023-04-09T15:05:05;16.60;99.90
48860;DHT22;34679;51.436;-2.518;2023-04-09T15:07:31;16.50;99.90
48860;DHT22;34679;51.436;-2.518;2023-04-09T15:09:57;16.50;99.90
48860;DHT22;34679;51.436;-2.518;2023-04-09T15:12:30;16.50;99.90
48860;DHT22;34679;51.436;-2.518;2023-04-09T15:14:56;16.30;99.90
48860;DHT22;34679;51.436;-2.518;2023-04-09T15:17:22;16.40;99.90
48860;DHT22;34679;51.436;-2.518;2023-04-09T15:19:48;16.20;99.90
48860;DHT22;34679;51.436;-2.518;2023-04-09T15:22:13;16.30;99.90
48860;DHT22;34679;51.436;-2.518;2023-04-09T15:24:39;16.20;99.90
48860;DHT22;34679;51.436;-2.518;2023-04-09T15:27:05;16.10;99.90
48860;DHT22;34679;51.436;-2.518;2023-04-09T15:29:31;16.10;99.90
48860;DHT22;34679;51.436;-2.518;2023-04-09T15:31:57;16.20;99.90
48860;DHT22;34679;51.436;-2.518;2023-04-09T15:34:23;16.20;99.90
48860;DHT22;34679;51.436;-2.518;2023-04-09T15:36:50;16.00;99.90
48860;DHT22;34679;51.436;-2.518;2023-04-09T15:39:16;15.90;99.90
48860;DHT22;34679;51.436;-2.518;2023-04-09T15:41:42;15.90;99.90
48860;DHT22;34679;51.436;-2.518;2023-04-09T15:44:08;15.70;99.90
48860;DHT22;34679;51.436;-2.518;2023-04-09T15:46:33;15.70;99.90